Rutherford, Indiana
Current Conditions -  °F | °C
As of 12:15 AM on Sunday 23 Nov 2014 (Local Time) from KDCY Reporting Station
Broken Clouds Broken Clouds  
Wind Chill: 51°   Ceiling: 7500
Heat Index: 51°   Visibility: 10mi
Dew Point: 40°   Wind: 12mph
Humidity: 64%   Direction: 180°S
Pressure: 29.97"   Gusts: NA
Location:  38.6074°N, 86.9234°W
Report Text: KDCY 230615Z AUTO 18010KT 10SM BKN075 BKN090 11/04 A2997 RMK AO2 T01080043
Loading
Personal Weather Stations






























Interactive Weather Map New forecast layout! Learn more

10-Day Weather Forecast

Advertisements
Track Severe Weather on mobile